GMTT/TNG METAR and TAF weather

Enter ICAO airport designator
Station Type Date Time Source
GMTT METAR 2021/07/24 19:30 UTC NOAA

GMTT 241930Z 24005KT CAVOK 23/18 Q1012 NOSIG


Station Type Date Time Source
GMTT Decoded METAR 2021/07/24 19:30 UTC NOAA

Tanger Aerodrome , Morocco (GMTT) 35-44N 005-54W 21M
Jul 24, 2021 - 03:30 PM EDT / 2021.07.24 1930 UTC
Wind: from the WSW (240 degrees) at 6 MPH (5 KT):0
Visibility: greater than 7 mile(s):0
Temperature: 73 F (23 C)
Dew Point: 64 F (18 C)
Relative Humidity: 73%
Pressure (altimeter): 29.88 in. Hg (1012 hPa)
ob: GMTT 241930Z 24005KT CAVOK 23/18 Q1012 NOSIG
cycle: 19

Station Type Date Time Source
GMTT TAF 2021/07/24 18:18 UTC NOAA

TAF GMTT 241700Z 2418/2524 24008KT CAVOK

Example: see airport list